ENBR Airport Information

Runway Information
Runway 17 Length 9810 ft width 148 ft
Elevation 165 ft Threshold 886 ft Heading 171
Runway 35 Length 9810 ft Width 148 ft
Elevation 146 ft Threshold 889 ft Heading 351
Airport Frequencies
Type APP Name RADAR Frequency 121 MHZ
Type ARR Name ARR Frequency 125 MHZ
Type ATIS Name ATIS Frequency 125.25 MHZ
Type DIR Name DIRECTOR Frequency 118.85 MHZ
Type GND Name GND Frequency 121.9 MHZ
Type TWR Name TWR Frequency 119.1 MHZ
Airport Navaids
Type NDB Name Askoy Frequency 360 KHZ
Type NDB Name Bratta Frequency 336 KHZ
Type TACAN Name Flesland Frequency 114500 KHZ
Type VOR-DME Name Flesland Frequency 115550 KHZ
Type VOR-DME Name Vollo Frequency 114850 KHZ
Airport Weather Information & NOTAM
ADDS - METARS form results

(1059 UTC 30 June 2022)
Data provider http://aviationweather.gov/metar/data/
 
METAR text: ENBR 301050Z 16006KT 110V220 CAVOK 24/11 Q1016 NOSIG RMK WIND 1200FT 14012KT
Conditions at: ENBR (BERGEN/FLESLAND , NO) observed 1050 UTC 30 June 2022
Temperature: 24.0°C (75°F)
Dewpoint: 11.0°C (52°F) [RH = 44%]
Pressure (altimeter): 30.00 inches Hg (1016.0 mb)
Winds: from the SSE (160 degrees) at 7 MPH (6 knots; 3.1 m/s)
Visibility: 6 or more miles (10+ km)
Ceiling: ceiling and visibility are OK
Clouds: unknown
Weather: no significant weather observed at this time

METAR text: ENBR 301020Z 18008KT 150V210 CAVOK 23/10 Q1016 NOSIG RMK WIND 1200FT 13011KT
Conditions at: ENBR (BERGEN/FLESLAND , NO) observed 1020 UTC 30 June 2022
Temperature: 23.0°C (73°F)
Dewpoint: 10.0°C (50°F) [RH = 44%]
Pressure (altimeter): 30.00 inches Hg (1016.0 mb)
Winds: from the S (180 degrees) at 9 MPH (8 knots; 4.1 m/s)
Visibility: 6 or more miles (10+ km)
Ceiling: ceiling and visibility are OK
Clouds: unknown
Weather: no significant weather observed at this time

Forecast for: ENBR (BERGEN/FLESLAND , NO)
Text: TAF ENBR 3006/0106 VRB03KT CAVOK
Forecast period: 0600 to 0800 UTC 30 June 2022
Forecast type: FROM: standard forecast or significant change
Winds: variable direction winds at 3 MPH (3 knots; 1.5 m/s)
Visibility: 6 or more miles (10+ km)
Ceiling: unknown
Clouds: missing
Weather: NSW  (no significant weather)
Text: BECMG 3008/3011 16010KT
Forecast period: 0800 to 1400 UTC 30 June 2022
Forecast type: BECOMING: Conditions expected to become as follows by 1100 UTC 30 June 2022
Winds: from the SSE (160 degrees) at 12 MPH (10 knots; 5.1 m/s)
Visibility: 6 or more miles (10+ km)
Ceiling: unknown
Clouds: missing
Weather: NSW  (no significant weather)
Text: BECMG 3014/3016 VRB03KT
Forecast period: 1400 UTC 30 June 2022 to 0600 UTC 01 July 2022
Forecast type: BECOMING: Conditions expected to become as follows by 1600 UTC 30 June 2022
Winds: variable direction winds at 3 MPH (3 knots; 1.5 m/s)
Visibility: 6 or more miles (10+ km)
Ceiling: unknown
Clouds: missing
Weather: NSW  (no significant weather)